sensor_id;sensor_type;location;lat;lon;timestamp;temperature;humidity
59303;DHT22;45074;52.764;6.896;2022-07-23T00:02:16;16.10;99.90
59303;DHT22;45074;52.764;6.896;2022-07-23T00:04:42;16.90;99.90
59303;DHT22;45074;52.764;6.896;2022-07-23T00:07:07;15.40;99.90
59303;DHT22;45074;52.764;6.896;2022-07-23T00:09:33;16.80;99.90
59303;DHT22;45074;52.764;6.896;2022-07-23T00:14:25;15.50;99.90
59303;DHT22;45074;52.764;6.896;2022-07-23T00:16:51;15.40;99.90
59303;DHT22;45074;52.764;6.896;2022-07-23T00:19:16;15.70;99.90
59303;DHT22;45074;52.764;6.896;2022-07-23T00:21:42;15.70;99.90
59303;DHT22;45074;52.764;6.896;2022-07-23T00:26:34;15.80;99.90
59303;DHT22;45074;52.764;6.896;2022-07-23T00:28:59;15.30;99.90
59303;DHT22;45074;52.764;6.896;2022-07-23T00:33:52;15.60;99.90
59303;DHT22;45074;52.764;6.896;2022-07-23T00:36:24;13.80;99.90
59303;DHT22;45074;52.764;6.896;2022-07-23T00:38:50;13.70;99.90
59303;DHT22;45074;52.764;6.896;2022-07-23T00:46:08;13.90;99.90
59303;DHT22;45074;52.764;6.896;2022-07-23T00:48:33;13.90;99.90
59303;DHT22;45074;52.764;6.896;2022-07-23T00:50:59;13.80;99.90
59303;DHT22;45074;52.764;6.896;2022-07-23T00:53:25;13.80;99.90
59303;DHT22;45074;52.764;6.896;2022-07-23T00:55:51;16.30;99.90
59303;DHT22;45074;52.764;6.896;2022-07-23T00:58:17;14.70;99.90
59303;DHT22;45074;52.764;6.896;2022-07-23T01:00:43;16.30;99.90
59303;DHT22;45074;52.764;6.896;2022-07-23T01:03:09;14.80;99.90
59303;DHT22;45074;52.764;6.896;2022-07-23T01:05:35;14.40;99.90
59303;DHT22;45074;52.764;6.896;2022-07-23T01:08:00;14.60;99.90
59303;DHT22;45074;52.764;6.896;2022-07-23T01:13:08;16.10;99.90
59303;DHT22;45074;52.764;6.896;2022-07-23T01:15:36;14.00;99.90
59303;DHT22;45074;52.764;6.896;2022-07-23T01:18:04;15.20;99.90
59303;DHT22;45074;52.764;6.896;2022-07-23T01:20:31;15.70;99.90
59303;DHT22;45074;52.764;6.896;2022-07-23T01:22:57;13.90;99.90
59303;DHT22;45074;52.764;6.896;2022-07-23T01:25:24;15.80;99.90
59303;DHT22;45074;52.764;6.896;2022-07-23T01:27:52;13.60;99.90
59303;DHT22;45074;52.764;6.896;2022-07-23T01:30:19;13.50;99.90
59303;DHT22;45074;52.764;6.896;2022-07-23T01:32:44;15.20;99.90
59303;DHT22;45074;52.764;6.896;2022-07-23T01:35:10;15.10;99.90
59303;DHT22;45074;52.764;6.896;2022-07-23T01:37:36;14.90;99.90
59303;DHT22;45074;52.764;6.896;2022-07-23T01:40:02;14.70;99.90
59303;DHT22;45074;52.764;6.896;2022-07-23T01:42:28;15.70;99.90
59303;DHT22;45074;52.764;6.896;2022-07-23T01:47:19;14.70;99.90
59303;DHT22;45074;52.764;6.896;2022-07-23T01:49:45;14.80;99.90
59303;DHT22;45074;52.764;6.896;2022-07-23T01:52:11;14.80;99.90
59303;DHT22;45074;52.764;6.896;2022-07-23T01:54:37;13.40;99.90
59303;DHT22;45074;52.764;6.896;2022-07-23T01:57:04;13.50;99.90
59303;DHT22;45074;52.764;6.896;2022-07-23T02:01:56;14.60;99.90
59303;DHT22;45074;52.764;6.896;2022-07-23T02:04:24;14.80;99.90
59303;DHT22;45074;52.764;6.896;2022-07-23T02:06:50;14.90;99.90
59303;DHT22;45074;52.764;6.896;2022-07-23T02:09:16;14.60;99.90
59303;DHT22;45074;52.764;6.896;2022-07-23T02:11:42;14.30;99.90
59303;DHT22;45074;52.764;6.896;2022-07-23T02:14:08;14.50;99.90
59303;DHT22;45074;52.764;6.896;2022-07-23T02:16:33;14.60;99.90
59303;DHT22;45074;52.764;6.896;2022-07-23T02:18:59;14.80;99.90
59303;DHT22;45074;52.764;6.896;2022-07-23T02:21:25;16.20;99.90
59303;DHT22;45074;52.764;6.896;2022-07-23T02:26:16;14.30;99.90
59303;DHT22;45074;52.764;6.896;2022-07-23T02:28:42;14.70;99.90
59303;DHT22;45074;52.764;6.896;2022-07-23T02:38:26;14.20;99.90
59303;DHT22;45074;52.764;6.896;2022-07-23T02:40:51;13.00;99.90
59303;DHT22;45074;52.764;6.896;2022-07-23T02:43:17;14.20;99.90
59303;DHT22;45074;52.764;6.896;2022-07-23T02:48:09;13.90;99.90
59303;DHT22;45074;52.764;6.896;2022-07-23T02:50:38;14.00;99.90
59303;DHT22;45074;52.764;6.896;2022-07-23T02:53:03;12.90;99.90
59303;DHT22;45074;52.764;6.896;2022-07-23T02:55:29;14.10;99.90
59303;DHT22;45074;52.764;6.896;2022-07-23T02:57:55;14.10;99.90
59303;DHT22;45074;52.764;6.896;2022-07-23T03:00:21;13.90;99.90
59303;DHT22;45074;52.764;6.896;2022-07-23T03:02:46;13.80;99.90
59303;DHT22;45074;52.764;6.896;2022-07-23T03:05:12;13.00;99.90
59303;DHT22;45074;52.764;6.896;2022-07-23T03:12:30;12.40;99.90
59303;DHT22;45074;52.764;6.896;2022-07-23T03:14:55;13.20;99.90
59303;DHT22;45074;52.764;6.896;2022-07-23T03:17:21;12.50;99.90
59303;DHT22;45074;52.764;6.896;2022-07-23T03:19:46;13.60;99.90
59303;DHT22;45074;52.764;6.896;2022-07-23T03:24:38;13.20;99.90
59303;DHT22;45074;52.764;6.896;2022-07-23T03:27:19;13.40;99.90
59303;DHT22;45074;52.764;6.896;2022-07-23T03:32:11;13.50;99.90
59303;DHT22;45074;52.764;6.896;2022-07-23T03:34:37;13.40;99.90
59303;DHT22;45074;52.764;6.896;2022-07-23T03:37:04;13.40;99.90
59303;DHT22;45074;52.764;6.896;2022-07-23T03:39:29;13.20;99.90
59303;DHT22;45074;52.764;6.896;2022-07-23T03:41:55;12.90;99.90
59303;DHT22;45074;52.764;6.896;2022-07-23T03:44:21;13.20;99.90
59303;DHT22;45074;52.764;6.896;2022-07-23T03:46:46;13.40;99.90
59303;DHT22;45074;52.764;6.896;2022-07-23T03:49:12;12.00;99.90
59303;DHT22;45074;52.764;6.896;2022-07-23T03:51:38;13.20;99.90
59303;DHT22;45074;52.764;6.896;2022-07-23T03:54:03;13.50;99.90
59303;DHT22;45074;52.764;6.896;2022-07-23T03:56:29;13.30;99.90
59303;DHT22;45074;52.764;6.896;2022-07-23T03:58:56;13.20;99.90
59303;DHT22;45074;52.764;6.896;2022-07-23T04:01:21;13.30;99.90
59303;DHT22;45074;52.764;6.896;2022-07-23T04:03:47;12.80;99.90
59303;DHT22;45074;52.764;6.896;2022-07-23T04:06:13;13.20;99.90
59303;DHT22;45074;52.764;6.896;2022-07-23T04:08:38;13.60;99.90
59303;DHT22;45074;52.764;6.896;2022-07-23T04:11:04;13.20;99.90
59303;DHT22;45074;52.764;6.896;2022-07-23T04:13:30;13.50;99.90
59303;DHT22;45074;52.764;6.896;2022-07-23T04:15:58;13.10;99.90
59303;DHT22;45074;52.764;6.896;2022-07-23T04:18:23;13.10;99.90
59303;DHT22;45074;52.764;6.896;2022-07-23T04:20:51;12.20;99.90
59303;DHT22;45074;52.764;6.896;2022-07-23T04:23:17;13.40;99.90
59303;DHT22;45074;52.764;6.896;2022-07-23T04:25:43;13.30;99.90
59303;DHT22;45074;52.764;6.896;2022-07-23T04:28:08;13.20;99.90
59303;DHT22;45074;52.764;6.896;2022-07-23T04:30:34;13.50;99.90
59303;DHT22;45074;52.764;6.896;2022-07-23T04:33:00;13.10;99.90
59303;DHT22;45074;52.764;6.896;2022-07-23T04:35:26;12.00;99.90
59303;DHT22;45074;52.764;6.896;2022-07-23T04:37:51;13.00;99.90
59303;DHT22;45074;52.764;6.896;2022-07-23T04:40:17;13.20;99.90
59303;DHT22;45074;52.764;6.896;2022-07-23T04:45:09;12.30;99.90
59303;DHT22;45074;52.764;6.896;2022-07-23T04:47:35;13.40;99.90
59303;DHT22;45074;52.764;6.896;2022-07-23T04:50:00;13.70;99.90
59303;DHT22;45074;52.764;6.896;2022-07-23T04:52:26;12.90;99.90
59303;DHT22;45074;52.764;6.896;2022-07-23T04:54:52;13.50;99.90
59303;DHT22;45074;52.764;6.896;2022-07-23T04:57:18;12.80;99.90
59303;DHT22;45074;52.764;6.896;2022-07-23T04:59:43;14.70;99.90
59303;DHT22;45074;52.764;6.896;2022-07-23T05:02:09;12.20;99.90
59303;DHT22;45074;52.764;6.896;2022-07-23T05:04:34;14.00;99.90
59303;DHT22;45074;52.764;6.896;2022-07-23T05:07:00;13.60;99.90
59303;DHT22;45074;52.764;6.896;2022-07-23T05:09:26;14.00;99.90
59303;DHT22;45074;52.764;6.896;2022-07-23T05:11:51;15.00;99.90
59303;DHT22;45074;52.764;6.896;2022-07-23T05:14:17;13.90;99.90
59303;DHT22;45074;52.764;6.896;2022-07-23T05:16:43;12.30;99.90
59303;DHT22;45074;52.764;6.896;2022-07-23T05:19:09;13.80;99.90
59303;DHT22;45074;52.764;6.896;2022-07-23T05:21:34;14.00;99.90
59303;DHT22;45074;52.764;6.896;2022-07-23T05:26:26;14.00;99.90
59303;DHT22;45074;52.764;6.896;2022-07-23T05:28:52;12.80;99.90
59303;DHT22;45074;52.764;6.896;2022-07-23T05:31:17;14.40;99.90
59303;DHT22;45074;52.764;6.896;2022-07-23T05:36:09;14.10;99.90
59303;DHT22;45074;52.764;6.896;2022-07-23T05:38:35;14.80;99.90
59303;DHT22;45074;52.764;6.896;2022-07-23T05:41:02;13.90;99.90
59303;DHT22;45074;52.764;6.896;2022-07-23T05:43:28;14.90;99.90
59303;DHT22;45074;52.764;6.896;2022-07-23T05:45:53;14.70;99.90
59303;DHT22;45074;52.764;6.896;2022-07-23T05:48:19;15.70;99.90
59303;DHT22;45074;52.764;6.896;2022-07-23T05:50:46;14.80;99.90
59303;DHT22;45074;52.764;6.896;2022-07-23T05:53:12;15.50;99.90
59303;DHT22;45074;52.764;6.896;2022-07-23T05:55:38;16.60;99.90
59303;DHT22;45074;52.764;6.896;2022-07-23T05:58:04;16.30;99.90
59303;DHT22;45074;52.764;6.896;2022-07-23T06:00:30;15.30;99.90
59303;DHT22;45074;52.764;6.896;2022-07-23T06:02:56;15.20;99.90
59303;DHT22;45074;52.764;6.896;2022-07-23T06:07:48;15.80;99.90
59303;DHT22;45074;52.764;6.896;2022-07-23T06:10:13;16.50;99.90
59303;DHT22;45074;52.764;6.896;2022-07-23T06:15:06;15.30;99.90
59303;DHT22;45074;52.764;6.896;2022-07-23T06:19:58;14.50;99.90
59303;DHT22;45074;52.764;6.896;2022-07-23T06:22:24;15.90;99.90
59303;DHT22;45074;52.764;6.896;2022-07-23T06:24:50;14.40;99.90
59303;DHT22;45074;52.764;6.896;2022-07-23T06:27:17;15.80;99.90
59303;DHT22;45074;52.764;6.896;2022-07-23T06:29:43;17.40;99.90
59303;DHT22;45074;52.764;6.896;2022-07-23T06:32:08;15.40;99.90
59303;DHT22;45074;52.764;6.896;2022-07-23T06:34:34;17.70;99.90
59303;DHT22;45074;52.764;6.896;2022-07-23T06:39:26;16.80;99.90
59303;DHT22;45074;52.764;6.896;2022-07-23T06:41:52;16.00;99.90
59303;DHT22;45074;52.764;6.896;2022-07-23T06:44:18;17.20;99.90
59303;DHT22;45074;52.764;6.896;2022-07-23T06:46:43;17.60;99.90
59303;DHT22;45074;52.764;6.896;2022-07-23T06:49:09;17.00;99.90
59303;DHT22;45074;52.764;6.896;2022-07-23T06:51:35;17.40;99.90
59303;DHT22;45074;52.764;6.896;2022-07-23T06:54:02;19.00;99.90
59303;DHT22;45074;52.764;6.896;2022-07-23T06:56:28;17.10;99.90
59303;DHT22;45074;52.764;6.896;2022-07-23T06:58:53;17.70;99.90
59303;DHT22;45074;52.764;6.896;2022-07-23T07:01:19;17.20;99.90
59303;DHT22;45074;52.764;6.896;2022-07-23T07:03:45;17.70;99.90
59303;DHT22;45074;52.764;6.896;2022-07-23T07:06:10;18.40;99.90
59303;DHT22;45074;52.764;6.896;2022-07-23T07:11:03;19.20;99.90
59303;DHT22;45074;52.764;6.896;2022-07-23T07:18:21;18.00;99.90
59303;DHT22;45074;52.764;6.896;2022-07-23T07:20:46;18.20;99.90
59303;DHT22;45074;52.764;6.896;2022-07-23T07:25:38;18.10;99.90
59303;DHT22;45074;52.764;6.896;2022-07-23T07:28:04;18.60;99.90
59303;DHT22;45074;52.764;6.896;2022-07-23T07:30:30;17.80;99.90
59303;DHT22;45074;52.764;6.896;2022-07-23T07:32:55;19.90;99.90
59303;DHT22;45074;52.764;6.896;2022-07-23T07:35:21;18.30;99.90
59303;DHT22;45074;52.764;6.896;2022-07-23T07:37:46;18.00;99.90
59303;DHT22;45074;52.764;6.896;2022-07-23T07:40:12;18.40;99.90
59303;DHT22;45074;52.764;6.896;2022-07-23T07:42:50;19.00;99.90
59303;DHT22;45074;52.764;6.896;2022-07-23T07:45:16;18.40;99.90
59303;DHT22;45074;52.764;6.896;2022-07-23T07:47:42;18.40;99.90
59303;DHT22;45074;52.764;6.896;2022-07-23T07:50:08;18.70;99.90
59303;DHT22;45074;52.764;6.896;2022-07-23T07:52:35;18.80;99.90
59303;DHT22;45074;52.764;6.896;2022-07-23T07:55:03;19.60;99.90
59303;DHT22;45074;52.764;6.896;2022-07-23T07:57:29;18.80;99.90
59303;DHT22;45074;52.764;6.896;2022-07-23T07:59:54;18.80;99.90
59303;DHT22;45074;52.764;6.896;2022-07-23T08:02:20;18.80;99.90
59303;DHT22;45074;52.764;6.896;2022-07-23T08:04:46;19.40;99.90
59303;DHT22;45074;52.764;6.896;2022-07-23T08:07:12;19.70;99.90
59303;DHT22;45074;52.764;6.896;2022-07-23T08:09:38;19.20;99.90
59303;DHT22;45074;52.764;6.896;2022-07-23T08:12:04;19.30;99.90
59303;DHT22;45074;52.764;6.896;2022-07-23T08:14:29;19.40;99.90
59303;DHT22;45074;52.764;6.896;2022-07-23T08:16:55;20.60;99.90
59303;DHT22;45074;52.764;6.896;2022-07-23T08:19:21;19.70;99.90
59303;DHT22;45074;52.764;6.896;2022-07-23T08:21:46;19.60;99.90
59303;DHT22;45074;52.764;6.896;2022-07-23T08:24:12;19.60;99.90
59303;DHT22;45074;52.764;6.896;2022-07-23T08:26:37;19.20;99.90
59303;DHT22;45074;52.764;6.896;2022-07-23T08:29:03;19.90;99.90
59303;DHT22;45074;52.764;6.896;2022-07-23T08:36:22;19.70;98.70
59303;DHT22;45074;52.764;6.896;2022-07-23T08:38:47;20.00;98.30
59303;DHT22;45074;52.764;6.896;2022-07-23T08:41:14;19.90;96.90
59303;DHT22;45074;52.764;6.896;2022-07-23T08:43:40;19.80;99.90
59303;DHT22;45074;52.764;6.896;2022-07-23T08:48:34;20.30;99.90
59303;DHT22;45074;52.764;6.896;2022-07-23T08:51:02;20.10;99.90
59303;DHT22;45074;52.764;6.896;2022-07-23T08:53:30;19.80;96.30
59303;DHT22;45074;52.764;6.896;2022-07-23T08:55:59;19.80;95.90
59303;DHT22;45074;52.764;6.896;2022-07-23T08:58:26;20.00;94.20
59303;DHT22;45074;52.764;6.896;2022-07-23T09:03:27;20.00;93.70
59303;DHT22;45074;52.764;6.896;2022-07-23T09:05:54;20.00;92.10
59303;DHT22;45074;52.764;6.896;2022-07-23T09:08:24;19.10;99.90
59303;DHT22;45074;52.764;6.896;2022-07-23T09:11:09;20.10;99.90
59303;DHT22;45074;52.764;6.896;2022-07-23T09:13:39;20.90;99.90
59303;DHT22;45074;52.764;6.896;2022-07-23T09:16:15;19.90;99.90
59303;DHT22;45074;52.764;6.896;2022-07-23T09:18:42;20.30;99.90
59303;DHT22;45074;52.764;6.896;2022-07-23T09:21:22;20.50;92.00
59303;DHT22;45074;52.764;6.896;2022-07-23T09:24:01;18.60;99.60
59303;DHT22;45074;52.764;6.896;2022-07-23T09:26:36;21.20;99.90
59303;DHT22;45074;52.764;6.896;2022-07-23T09:32:00;20.70;77.20
59303;DHT22;45074;52.764;6.896;2022-07-23T09:34:32;20.60;82.50
59303;DHT22;45074;52.764;6.896;2022-07-23T09:37:18;20.70;83.20
59303;DHT22;45074;52.764;6.896;2022-07-23T09:39:46;20.80;80.20
59303;DHT22;45074;52.764;6.896;2022-07-23T09:42:23;20.90;83.80
59303;DHT22;45074;52.764;6.896;2022-07-23T09:44:57;20.80;83.30
59303;DHT22;45074;52.764;6.896;2022-07-23T09:47:25;20.60;75.00
59303;DHT22;45074;52.764;6.896;2022-07-23T09:50:10;20.50;81.30
59303;DHT22;45074;52.764;6.896;2022-07-23T09:52:49;20.40;75.10
59303;DHT22;45074;52.764;6.896;2022-07-23T09:55:15;20.60;83.40
59303;DHT22;45074;52.764;6.896;2022-07-23T10:00:11;20.60;82.80
59303;DHT22;45074;52.764;6.896;2022-07-23T10:05:04;21.10;92.60
59303;DHT22;45074;52.764;6.896;2022-07-23T10:07:37;21.50;93.00
59303;DHT22;45074;52.764;6.896;2022-07-23T10:10:04;21.30;92.90
59303;DHT22;45074;52.764;6.896;2022-07-23T10:12:30;21.10;94.00
59303;DHT22;45074;52.764;6.896;2022-07-23T10:17:35;21.10;93.00
59303;DHT22;45074;52.764;6.896;2022-07-23T10:20:01;20.90;78.80
59303;DHT22;45074;52.764;6.896;2022-07-23T10:22:30;21.30;78.30
59303;DHT22;45074;52.764;6.896;2022-07-23T10:25:33;21.20;76.20
59303;DHT22;45074;52.764;6.896;2022-07-23T10:33:45;21.30;73.60
59303;DHT22;45074;52.764;6.896;2022-07-23T10:36:32;21.40;71.70
59303;DHT22;45074;52.764;6.896;2022-07-23T10:41:39;22.20;83.70
59303;DHT22;45074;52.764;6.896;2022-07-23T10:44:13;22.30;74.90
59303;DHT22;45074;52.764;6.896;2022-07-23T10:47:00;22.30;82.70
59303;DHT22;45074;52.764;6.896;2022-07-23T10:49:28;21.80;62.10
59303;DHT22;45074;52.764;6.896;2022-07-23T10:52:23;22.80;83.50
59303;DHT22;45074;52.764;6.896;2022-07-23T10:55:38;21.80;61.70
59303;DHT22;45074;52.764;6.896;2022-07-23T10:57:51;22.30;81.50
59303;DHT22;45074;52.764;6.896;2022-07-23T11:00:22;21.30;78.40
59303;DHT22;45074;52.764;6.896;2022-07-23T11:02:50;22.40;62.10
59303;DHT22;45074;52.764;6.896;2022-07-23T11:05:24;22.70;61.10
59303;DHT22;45074;52.764;6.896;2022-07-23T11:13:28;23.00;59.60
59303;DHT22;45074;52.764;6.896;2022-07-23T11:26:57;24.50;72.30
59303;DHT22;45074;52.764;6.896;2022-07-23T11:32:07;24.10;67.60
59303;DHT22;45074;52.764;6.896;2022-07-23T11:34:45;23.30;72.00
59303;DHT22;45074;52.764;6.896;2022-07-23T11:37:38;24.20;69.90
59303;DHT22;45074;52.764;6.896;2022-07-23T11:42:30;25.80;62.80
59303;DHT22;45074;52.764;6.896;2022-07-23T11:44:56;24.00;64.20
59303;DHT22;45074;52.764;6.896;2022-07-23T11:47:26;24.40;58.70
59303;DHT22;45074;52.764;6.896;2022-07-23T11:49:59;24.30;63.60
59303;DHT22;45074;52.764;6.896;2022-07-23T11:52:26;23.70;64.40
59303;DHT22;45074;52.764;6.896;2022-07-23T11:55:08;24.20;64.80
59303;DHT22;45074;52.764;6.896;2022-07-23T11:57:43;24.40;66.30
59303;DHT22;45074;52.764;6.896;2022-07-23T12:00:15;24.60;66.80
59303;DHT22;45074;52.764;6.896;2022-07-23T12:02:50;24.40;52.20
59303;DHT22;45074;52.764;6.896;2022-07-23T12:05:21;25.40;65.50
59303;DHT22;45074;52.764;6.896;2022-07-23T17:51:17;24.30;51.60
59303;DHT22;45074;52.764;6.896;2022-07-23T17:56:09;24.30;65.80
59303;DHT22;45074;52.764;6.896;2022-07-23T17:58:34;24.40;67.10
59303;DHT22;45074;52.764;6.896;2022-07-23T18:01:00;23.10;67.10
59303;DHT22;45074;52.764;6.896;2022-07-23T18:03:26;23.50;66.80
59303;DHT22;45074;52.764;6.896;2022-07-23T18:08:18;22.50;68.80
59303;DHT22;45074;52.764;6.896;2022-07-23T18:10:44;23.50;68.70
59303;DHT22;45074;52.764;6.896;2022-07-23T18:13:09;23.60;69.70
59303;DHT22;45074;52.764;6.896;2022-07-23T18:15:36;24.40;70.40
59303;DHT22;45074;52.764;6.896;2022-07-23T18:27:47;23.10;70.80
59303;DHT22;45074;52.764;6.896;2022-07-23T18:30:12;23.40;71.50
59303;DHT22;45074;52.764;6.896;2022-07-23T18:32:39;23.40;55.90
59303;DHT22;45074;52.764;6.896;2022-07-23T18:35:06;23.70;72.20
59303;DHT22;45074;52.764;6.896;2022-07-23T18:37:32;23.70;72.40
59303;DHT22;45074;52.764;6.896;2022-07-23T18:42:25;23.10;58.10
59303;DHT22;45074;52.764;6.896;2022-07-23T18:44:51;22.50;75.00
59303;DHT22;45074;52.764;6.896;2022-07-23T18:47:17;23.30;76.00
59303;DHT22;45074;52.764;6.896;2022-07-23T18:49:43;23.10;76.40
59303;DHT22;45074;52.764;6.896;2022-07-23T18:57:01;24.40;82.30
59303;DHT22;45074;52.764;6.896;2022-07-23T18:59:26;23.10;82.40
59303;DHT22;45074;52.764;6.896;2022-07-23T19:01:52;22.40;80.20
59303;DHT22;45074;52.764;6.896;2022-07-23T19:04:18;22.70;85.00
59303;DHT22;45074;52.764;6.896;2022-07-23T19:06:44;22.30;85.80
59303;DHT22;45074;52.764;6.896;2022-07-23T19:09:10;21.90;86.60
59303;DHT22;45074;52.764;6.896;2022-07-23T19:11:36;22.60;88.90
59303;DHT22;45074;52.764;6.896;2022-07-23T19:14:03;23.40;90.40
59303;DHT22;45074;52.764;6.896;2022-07-23T19:16:29;22.40;91.00
59303;DHT22;45074;52.764;6.896;2022-07-23T19:18:55;22.00;91.70
59303;DHT22;45074;52.764;6.896;2022-07-23T19:21:20;22.60;92.00
59303;DHT22;45074;52.764;6.896;2022-07-23T19:23:46;21.30;92.20
59303;DHT22;45074;52.764;6.896;2022-07-23T19:26:12;22.50;86.80
59303;DHT22;45074;52.764;6.896;2022-07-23T19:28:37;22.50;94.40
59303;DHT22;45074;52.764;6.896;2022-07-23T19:31:03;21.00;94.40
59303;DHT22;45074;52.764;6.896;2022-07-23T19:33:29;21.30;94.60
59303;DHT22;45074;52.764;6.896;2022-07-23T19:38:21;22.40;95.60
59303;DHT22;45074;52.764;6.896;2022-07-23T19:43:13;20.90;95.40
59303;DHT22;45074;52.764;6.896;2022-07-23T19:45:38;21.00;96.30
59303;DHT22;45074;52.764;6.896;2022-07-23T19:48:04;21.30;96.60
59303;DHT22;45074;52.764;6.896;2022-07-23T19:50:31;20.70;96.50
59303;DHT22;45074;52.764;6.896;2022-07-23T19:52:57;21.30;96.70
59303;DHT22;45074;52.764;6.896;2022-07-23T19:55:23;21.20;93.40
59303;DHT22;45074;52.764;6.896;2022-07-23T19:57:49;21.60;98.40
59303;DHT22;45074;52.764;6.896;2022-07-23T20:00:15;21.10;98.60
59303;DHT22;45074;52.764;6.896;2022-07-23T20:02:43;21.20;99.00
59303;DHT22;45074;52.764;6.896;2022-07-23T20:05:09;20.60;99.80
59303;DHT22;45074;52.764;6.896;2022-07-23T20:07:37;19.70;99.90
59303;DHT22;45074;52.764;6.896;2022-07-23T20:10:05;20.90;99.90
59303;DHT22;45074;52.764;6.896;2022-07-23T20:12:30;20.00;99.90
59303;DHT22;45074;52.764;6.896;2022-07-23T20:14:56;21.10;99.90
59303;DHT22;45074;52.764;6.896;2022-07-23T20:17:22;20.80;99.90
59303;DHT22;45074;52.764;6.896;2022-07-23T20:19:48;19.40;99.90
59303;DHT22;45074;52.764;6.896;2022-07-23T20:22:14;18.90;99.90
59303;DHT22;45074;52.764;6.896;2022-07-23T20:29:31;20.10;99.90
59303;DHT22;45074;52.764;6.896;2022-07-23T20:31:57;20.20;99.90
59303;DHT22;45074;52.764;6.896;2022-07-23T20:34:23;20.60;99.90
59303;DHT22;45074;52.764;6.896;2022-07-23T20:36:48;21.20;99.90
59303;DHT22;45074;52.764;6.896;2022-07-23T20:39:14;19.70;99.90
59303;DHT22;45074;52.764;6.896;2022-07-23T20:41:40;20.20;99.90
59303;DHT22;45074;52.764;6.896;2022-07-23T20:44:07;20.00;99.10
59303;DHT22;45074;52.764;6.896;2022-07-23T20:48:59;19.60;99.90
59303;DHT22;45074;52.764;6.896;2022-07-23T20:51:24;20.00;99.90
59303;DHT22;45074;52.764;6.896;2022-07-23T20:56:17;21.00;99.90
59303;DHT22;45074;52.764;6.896;2022-07-23T20:58:42;19.50;99.90
59303;DHT22;45074;52.764;6.896;2022-07-23T21:01:08;20.00;99.90
59303;DHT22;45074;52.764;6.896;2022-07-23T21:03:34;17.90;99.90
59303;DHT22;45074;52.764;6.896;2022-07-23T21:06:00;19.20;99.90
59303;DHT22;45074;52.764;6.896;2022-07-23T21:08:25;19.50;99.90
59303;DHT22;45074;52.764;6.896;2022-07-23T21:10:51;20.70;99.90
59303;DHT22;45074;52.764;6.896;2022-07-23T21:13:17;17.90;99.90
59303;DHT22;45074;52.764;6.896;2022-07-23T21:15:43;19.30;99.90
59303;DHT22;45074;52.764;6.896;2022-07-23T21:18:08;19.70;99.90
59303;DHT22;45074;52.764;6.896;2022-07-23T21:23:19;19.00;99.90
59303;DHT22;45074;52.764;6.896;2022-07-23T21:30:38;17.60;99.90
59303;DHT22;45074;52.764;6.896;2022-07-23T21:35:30;19.20;99.90
59303;DHT22;45074;52.764;6.896;2022-07-23T21:37:55;19.10;99.90
59303;DHT22;45074;52.764;6.896;2022-07-23T21:42:47;18.80;99.90
59303;DHT22;45074;52.764;6.896;2022-07-23T21:47:38;18.40;99.90
59303;DHT22;45074;52.764;6.896;2022-07-23T21:50:05;19.30;99.90
59303;DHT22;45074;52.764;6.896;2022-07-23T21:52:31;18.60;99.90
59303;DHT22;45074;52.764;6.896;2022-07-23T21:57:24;18.60;99.90
59303;DHT22;45074;52.764;6.896;2022-07-23T21:59:50;18.50;99.90
59303;DHT22;45074;52.764;6.896;2022-07-23T22:02:16;19.10;99.90
59303;DHT22;45074;52.764;6.896;2022-07-23T22:07:08;18.50;99.90
59303;DHT22;45074;52.764;6.896;2022-07-23T22:14:26;16.90;99.90
59303;DHT22;45074;52.764;6.896;2022-07-23T22:16:52;18.80;99.90
59303;DHT22;45074;52.764;6.896;2022-07-23T22:26:36;18.30;99.90
59303;DHT22;45074;52.764;6.896;2022-07-23T22:29:02;18.20;99.90
59303;DHT22;45074;52.764;6.896;2022-07-23T22:31:28;18.30;99.90
59303;DHT22;45074;52.764;6.896;2022-07-23T22:33:53;18.50;99.90
59303;DHT22;45074;52.764;6.896;2022-07-23T22:36:19;18.00;99.90
59303;DHT22;45074;52.764;6.896;2022-07-23T22:38:44;18.20;99.90
59303;DHT22;45074;52.764;6.896;2022-07-23T22:41:10;19.50;99.90
59303;DHT22;45074;52.764;6.896;2022-07-23T22:43:36;17.60;99.90
59303;DHT22;45074;52.764;6.896;2022-07-23T22:46:01;18.00;99.90
59303;DHT22;45074;52.764;6.896;2022-07-23T22:48:27;18.20;99.90
59303;DHT22;45074;52.764;6.896;2022-07-23T22:55:45;16.10;99.90
59303;DHT22;45074;52.764;6.896;2022-07-23T23:05:29;17.60;99.90
59303;DHT22;45074;52.764;6.896;2022-07-23T23:07:54;17.20;99.90
59303;DHT22;45074;52.764;6.896;2022-07-23T23:10:20;18.20;99.90
59303;DHT22;45074;52.764;6.896;2022-07-23T23:15:12;15.80;99.90
59303;DHT22;45074;52.764;6.896;2022-07-23T23:17:38;18.00;99.90
59303;DHT22;45074;52.764;6.896;2022-07-23T23:20:05;17.70;99.90
59303;DHT22;45074;52.764;6.896;2022-07-23T23:22:32;17.40;99.90
59303;DHT22;45074;52.764;6.896;2022-07-23T23:24:57;19.00;99.90
59303;DHT22;45074;52.764;6.896;2022-07-23T23:27:23;16.00;99.90
59303;DHT22;45074;52.764;6.896;2022-07-23T23:32:14;18.10;99.90
59303;DHT22;45074;52.764;6.896;2022-07-23T23:34:40;17.30;99.90
59303;DHT22;45074;52.764;6.896;2022-07-23T23:37:06;17.10;99.90
59303;DHT22;45074;52.764;6.896;2022-07-23T23:39:31;15.60;99.90
59303;DHT22;45074;52.764;6.896;2022-07-23T23:44:23;16.50;99.90
59303;DHT22;45074;52.764;6.896;2022-07-23T23:46:50;17.10;99.90
59303;DHT22;45074;52.764;6.896;2022-07-23T23:49:16;16.70;99.90
59303;DHT22;45074;52.764;6.896;2022-07-23T23:51:42;17.30;99.90
59303;DHT22;45074;52.764;6.896;2022-07-23T23:54:12;16.50;99.90
59303;DHT22;45074;52.764;6.896;2022-07-23T23:56:39;16.90;99.90
59303;DHT22;45074;52.764;6.896;2022-07-23T23:59:05;17.10;99.90
